Gladden, Missouri
Current Conditions -  °F | °C
As of 9:19 AM on Monday 22 Dec 2014 (Local Time) from KTBN Reporting Station
Drizzle Drizzle  
Wind Chill: 38°   Ceiling: 1200
Heat Index: 43°   Visibility: 6mi
Dew Point: 43°   Wind: 8mph
Humidity: 100%   Direction: 140°SE
Pressure: 29.65"   Gusts: NA
Location:  37.5023°N, 91.4546°W
Report Text: KTBN 221519Z AUTO 14007KT 6SM -DZ BR FEW007 BKN012 OVC030 06/06 A2965 RMK AO2 CIG 012V023 CIG 004 RWY32
Loading
Personal Weather Stations






























Interactive Weather Map New forecast layout! Learn more

10-Day Weather Forecast

Advertisements
Track Severe Weather on mobile